Terminal Aerodrome Forecast
Issued by NWS

Home | Current Version | Previous Version | Text Only | Print | Product List | Glossary Off
Versions: 1 2 3 4 5 6 7 8 9 10 11 12 13 14 15 16 17 18 19 20 21 22 23 24

000
FTUS43 KMPX 291203 AAA
TAFRWF
TAF AMD
KRWF 291203Z 2912/3012 18003KT 1/2SM FG VV002
     FM291330 18004KT 3SM BR BKN005
     FM291430 18007KT P6SM SKC
     FM300500 18004KT 6SM BR SKC=

USA.gov is the U.S. government's official web portal to all federal, state and local government web resources and services.